Time;durP1;ratioP1;P1;durP2;ratioP2;P2;SDS_P1;SDS_P2;PMS_P1;PMS_P2;Temp;Humidity;BMP_temperature;BMP_pressure;BME280_temperature;BME280_humidity;BME280_pressure;Samples;Min_cycle;Max_cycle;Signal;HPM_P1;HPM_P2
2019/11/12 00:02:20;;;;;;;8.4;6.6;;;;;;;;;;;;;
2019/11/12 00:04:45;;;;;;;7.4;6.2;;;;;;;;;;;;;
2019/11/12 00:07:10;;;;;;;10;6.1;;;;;;;;;;;;;
2019/11/12 00:09:35;;;;;;;7.7;6.3;;;;;;;;;;;;;
2019/11/12 00:12:00;;;;;;;8.9;6.5;;;;;;;;;;;;;
2019/11/12 00:14:25;;;;;;;9.5;6.1;;;;;;;;;;;;;
2019/11/12 00:16:51;;;;;;;8.8;6.2;;;;;;;;;;;;;
2019/11/12 00:19:16;;;;;;;9.5;6.2;;;;;;;;;;;;;
2019/11/12 00:21:41;;;;;;;10.1;6.1;;;;;;;;;;;;;
2019/11/12 00:24:06;;;;;;;9.2;6.3;;;;;;;;;;;;;
2019/11/12 00:26:31;;;;;;;8.2;5.9;;;;;;;;;;;;;
2019/11/12 00:28:56;;;;;;;8.4;5.5;;;;;;;;;;;;;
2019/11/12 00:31:21;;;;;;;7.2;5.7;;;;;;;;;;;;;
2019/11/12 00:33:48;;;;;;;7.9;5.5;;;;;;;;;;;;;
2019/11/12 00:36:12;;;;;;;7.9;5.5;;;;;;;;;;;;;
2019/11/12 00:38:37;;;;;;;8.3;5.6;;;;;;;;;;;;;
2019/11/12 00:41:02;;;;;;;7.1;5.6;;;;;;;;;;;;;
2019/11/12 00:43:27;;;;;;;7.7;5.8;;;;;;;;;;;;;
2019/11/12 00:45:52;;;;;;;8.3;5.9;;;;;;;;;;;;;
2019/11/12 00:48:17;;;;;;;8.9;5.5;;;;;;;;;;;;;
2019/11/12 00:50:42;;;;;;;7.5;5.8;;;;;;;;;;;;;
2019/11/12 00:53:07;;;;;;;9.3;5.7;;;;;;;;;;;;;
2019/11/12 00:55:32;;;;;;;8.5;6.3;;;;;;;;;;;;;
2019/11/12 00:57:58;;;;;;;8.1;5.7;;;;;;;;;;;;;
2019/11/12 01:00:23;;;;;;;8.8;6;;;;;;;;;;;;;
2019/11/12 01:02:48;;;;;;;8.4;5.8;;;;;;;;;;;;;
2019/11/12 01:05:13;;;;;;;7.2;5.9;;;;;;;;;;;;;
2019/11/12 01:07:38;;;;;;;7.6;5.4;;;;;;;;;;;;;
2019/11/12 01:10:03;;;;;;;8.3;5.6;;;;;;;;;;;;;
2019/11/12 01:12:28;;;;;;;8;5.7;;;;;;;;;;;;;
2019/11/12 01:14:53;;;;;;;8;5.7;;;;;;;;;;;;;
2019/11/12 01:17:18;;;;;;;8.6;5.3;;;;;;;;;;;;;
2019/11/12 01:19:44;;;;;;;8.4;5.4;;;;;;;;;;;;;
2019/11/12 01:22:09;;;;;;;7.5;5.1;;;;;;;;;;;;;
2019/11/12 01:24:34;;;;;;;7.9;5;;;;;;;;;;;;;
2019/11/12 01:26:59;;;;;;;7.4;4.9;;;;;;;;;;;;;
2019/11/12 01:29:24;;;;;;;7.1;4.8;;;;;;;;;;;;;
2019/11/12 01:31:52;;;;;;;8;4.7;;;;;;;;;;;;;
2019/11/12 01:34:14;;;;;;;7.3;4.7;;;;;;;;;;;;;
2019/11/12 01:36:39;;;;;;;9.8;5.2;;;;;;;;;;;;;
2019/11/12 01:39:04;;;;;;;7.7;4.6;;;;;;;;;;;;;
2019/11/12 01:41:29;;;;;;;7.2;4.4;;;;;;;;;;;;;
2019/11/12 01:43:54;;;;;;;8.6;5.1;;;;;;;;;;;;;
2019/11/12 01:46:20;;;;;;;9.4;5.5;;;;;;;;;;;;;
2019/11/12 01:48:45;;;;;;;9.5;4.6;;;;;;;;;;;;;
2019/11/12 01:51:10;;;;;;;8.4;4.7;;;;;;;;;;;;;
2019/11/12 01:53:35;;;;;;;8.2;4.6;;;;;;;;;;;;;
2019/11/12 01:56:00;;;;;;;6.4;4.1;;;;;;;;;;;;;
2019/11/12 01:58:25;;;;;;;6.5;3.9;;;;;;;;;;;;;
2019/11/12 02:00:50;;;;;;;6.3;3.9;;;;;;;;;;;;;
2019/11/12 02:03:15;;;;;;;6.7;4.1;;;;;;;;;;;;;
2019/11/12 02:05:41;;;;;;;7.6;3.7;;;;;;;;;;;;;
2019/11/12 02:08:06;;;;;;;5.8;3.5;;;;;;;;;;;;;
2019/11/12 02:10:31;;;;;;;7.7;3.7;;;;;;;;;;;;;
2019/11/12 02:12:56;;;;;;;6.3;3.7;;;;;;;;;;;;;
2019/11/12 02:15:21;;;;;;;7.9;3.8;;;;;;;;;;;;;
2019/11/12 02:17:46;;;;;;;5.9;3.6;;;;;;;;;;;;;
2019/11/12 02:20:12;;;;;;;6.4;3.9;;;;;;;;;;;;;
2019/11/12 02:22:37;;;;;;;5.8;3.7;;;;;;;;;;;;;
2019/11/12 02:25:02;;;;;;;6.2;3.5;;;;;;;;;;;;;
2019/11/12 02:27:27;;;;;;;7.7;3.5;;;;;;;;;;;;;
2019/11/12 02:29:52;;;;;;;6.9;3.8;;;;;;;;;;;;;
2019/11/12 02:32:17;;;;;;;4.9;3.5;;;;;;;;;;;;;
2019/11/12 02:34:42;;;;;;;5.7;3.6;;;;;;;;;;;;;
2019/11/12 02:37:07;;;;;;;5.1;3.3;;;;;;;;;;;;;
2019/11/12 02:39:32;;;;;;;6;3.4;;;;;;;;;;;;;
2019/11/12 02:41:57;;;;;;;4.2;3.1;;;;;;;;;;;;;
2019/11/12 02:44:22;;;;;;;6.3;3.6;;;;;;;;;;;;;
2019/11/12 02:46:47;;;;;;;6.4;3.7;;;;;;;;;;;;;
2019/11/12 02:49:13;;;;;;;7.6;3.4;;;;;;;;;;;;;
2019/11/12 02:51:38;;;;;;;4.7;3.1;;;;;;;;;;;;;
2019/11/12 02:54:03;;;;;;;6.3;3.4;;;;;;;;;;;;;
2019/11/12 02:58:53;;;;;;;6;3.3;;;;;;;;;;;;;
2019/11/12 03:01:18;;;;;;;5.4;3.1;;;;;;;;;;;;;
2019/11/12 03:03:43;;;;;;;5.3;3.1;;;;;;;;;;;;;
2019/11/12 03:06:08;;;;;;;5.4;3;;;;;;;;;;;;;
2019/11/12 03:08:33;;;;;;;7.5;3.1;;;;;;;;;;;;;
2019/11/12 03:10:58;;;;;;;5.6;3;;;;;;;;;;;;;
2019/11/12 03:13:23;;;;;;;4.1;2.9;;;;;;;;;;;;;
2019/11/12 03:15:48;;;;;;;5.6;3.1;;;;;;;;;;;;;
2019/11/12 03:18:14;;;;;;;6;2.9;;;;;;;;;;;;;
2019/11/12 03:20:39;;;;;;;4.7;3.1;;;;;;;;;;;;;
2019/11/12 03:23:04;;;;;;;5.3;2.8;;;;;;;;;;;;;
2019/11/12 03:25:29;;;;;;;5.5;2.8;;;;;;;;;;;;;
2019/11/12 03:27:54;;;;;;;6.1;2.9;;;;;;;;;;;;;
2019/11/12 03:30:19;;;;;;;5.8;2.6;;;;;;;;;;;;;
2019/11/12 03:32:44;;;;;;;5.3;2.8;;;;;;;;;;;;;
2019/11/12 03:35:09;;;;;;;4.2;2.4;;;;;;;;;;;;;
2019/11/12 03:37:35;;;;;;;6.1;2.6;;;;;;;;;;;;;
2019/11/12 03:40:00;;;;;;;4.4;2.3;;;;;;;;;;;;;
2019/11/12 03:42:25;;;;;;;6.4;2.3;;;;;;;;;;;;;
2019/11/12 03:44:50;;;;;;;6;2.4;;;;;;;;;;;;;
2019/11/12 03:47:15;;;;;;;6.4;2.2;;;;;;;;;;;;;
2019/11/12 03:49:40;;;;;;;5.2;2.6;;;;;;;;;;;;;
2019/11/12 03:52:10;;;;;;;6.1;2.1;;;;;;;;;;;;;
2019/11/12 03:54:41;;;;;;;4.5;2.2;;;;;;;;;;;;;
2019/11/12 03:56:57;;;;;;;4.5;2.3;;;;;;;;;;;;;
2019/11/12 03:59:21;;;;;;;3.6;1.9;;;;;;;;;;;;;
